createdAt,value
2022-09-11T00:01:19.302Z,98028.66
2022-09-11T00:03:47.097Z,98024.13
2022-09-11T00:06:28.486Z,98021.84
2022-09-11T00:09:00.370Z,98030.59
2022-09-11T00:11:33.794Z,98037.25
2022-09-11T00:14:00.472Z,98035.38
2022-09-11T00:16:30.803Z,98038.47
2022-09-11T00:18:59.723Z,98038.00
2022-09-11T00:21:27.590Z,98036.16
2022-09-11T00:23:54.241Z,98035.84
2022-09-11T00:26:21.529Z,98040.00
2022-09-11T00:28:50.587Z,98042.50
2022-09-11T00:31:20.063Z,98047.75
2022-09-11T00:33:46.747Z,98047.19
2022-09-11T00:36:16.147Z,98052.00
2022-09-11T00:38:42.995Z,98053.38
2022-09-11T00:41:15.230Z,98052.63
2022-09-11T00:44:07.349Z,98051.09
2022-09-11T00:46:44.267Z,98054.81
2022-09-11T00:49:40.090Z,98058.84
2022-09-11T00:52:27.327Z,98053.47
2022-09-11T00:55:07.582Z,98053.47
2022-09-11T00:57:40.716Z,98057.66
2022-09-11T01:00:08.635Z,98059.81
2022-09-11T01:02:37.166Z,98055.22
2022-09-11T01:05:04.455Z,98048.78
2022-09-11T01:07:32.681Z,98059.25
2022-09-11T01:09:59.938Z,98044.63
2022-09-11T01:13:05.881Z,98045.28
2022-09-11T01:15:53.814Z,98044.81
2022-09-11T01:18:29.737Z,98044.72
2022-09-11T01:21:08.559Z,98049.59
2022-09-11T01:24:00.315Z,98051.03
2022-09-11T01:26:56.033Z,98052.88
2022-09-11T01:29:44.028Z,98063.69
2022-09-11T01:32:21.157Z,98061.06
2022-09-11T01:35:09.394Z,98072.31
2022-09-11T01:38:05.426Z,98067.19
2022-09-11T01:40:55.894Z,98077.22
2022-09-11T01:43:27.124Z,98073.94
2022-09-11T01:45:58.326Z,98070.00
2022-09-11T01:48:37.127Z,98069.38
2022-09-11T01:51:04.532Z,98074.28
2022-09-11T01:53:37.501Z,98077.84
2022-09-11T01:56:13.435Z,98083.56
2022-09-11T01:58:42.100Z,98078.94
2022-09-11T02:01:17.006Z,98084.66
2022-09-11T02:03:46.547Z,98079.09
2022-09-11T02:06:18.123Z,98080.19
2022-09-11T02:08:53.093Z,98084.31
2022-09-11T02:11:23.339Z,98088.47
2022-09-11T02:13:50.047Z,98086.94
2022-09-11T02:16:20.092Z,98088.41
2022-09-11T02:18:58.562Z,98093.78
2022-09-11T02:21:26.006Z,98088.66
2022-09-11T02:23:52.575Z,98094.84
2022-09-11T02:26:21.211Z,98096.09
2022-09-11T02:28:47.874Z,98098.81
2022-09-11T02:31:14.801Z,98099.59
2022-09-11T02:33:42.051Z,98100.81
2022-09-11T02:36:31.314Z,98104.63
2022-09-11T02:39:06.309Z,98107.41
2022-09-11T02:41:51.938Z,98102.16
2022-09-11T02:44:37.886Z,98120.31
2022-09-11T02:47:20.298Z,98107.06
2022-09-11T02:50:02.314Z,98115.06
2022-09-11T02:52:47.717Z,98118.97
2022-09-11T02:55:25.378Z,98121.03
2022-09-11T02:58:02.629Z,98118.50
2022-09-11T03:00:31.232Z,98123.00
2022-09-11T03:02:59.196Z,98125.75
2022-09-11T03:05:25.926Z,98125.75
2022-09-11T03:07:52.526Z,98126.06
2022-09-11T03:10:20.262Z,98131.44
2022-09-11T03:12:46.813Z,98130.66
2022-09-11T03:15:13.463Z,98133.16
2022-09-11T03:17:44.412Z,98131.63
2022-09-11T03:20:11.051Z,98127.03
2022-09-11T03:22:37.646Z,98136.28
2022-09-11T03:25:04.584Z,98132.59
2022-09-11T03:27:31.605Z,98130.94
2022-09-11T03:29:59.222Z,98129.41
2022-09-11T03:32:28.587Z,98139.22
2022-09-11T03:34:57.434Z,98135.69
2022-09-11T03:37:24.168Z,98135.69
2022-09-11T03:39:50.790Z,98136.03
2022-09-11T03:42:17.503Z,98142.63
2022-09-11T03:44:45.652Z,98144.78
2022-09-11T03:47:12.793Z,98139.88
2022-09-11T03:49:39.884Z,98139.22
2022-09-11T03:52:06.585Z,98144.13
2022-09-11T03:54:34.437Z,98142.31
2022-09-11T03:57:01.584Z,98148.31
2022-09-11T03:59:29.212Z,98145.13
2022-09-11T04:01:55.846Z,98135.41
2022-09-11T04:04:23.641Z,98138.78
2022-09-11T04:06:50.598Z,98144.34
2022-09-11T04:09:18.552Z,98143.31
2022-09-11T04:11:47.173Z,98138.97
2022-09-11T04:14:22.529Z,98142.69
2022-09-11T04:16:50.058Z,98145.59
2022-09-11T04:19:18.867Z,98143.63
2022-09-11T04:21:45.467Z,98138.56
2022-09-11T04:24:12.619Z,98146.09
2022-09-11T04:26:39.252Z,98153.09
2022-09-11T04:29:12.290Z,98150.16
2022-09-11T04:31:39.974Z,98152.31
2022-09-11T04:34:07.163Z,98154.03
2022-09-11T04:36:36.267Z,98146.63
2022-09-11T04:39:03.663Z,98146.63
2022-09-11T04:41:30.970Z,98148.25
2022-09-11T04:44:04.720Z,98156.59
2022-09-11T04:46:34.480Z,98158.34
2022-09-11T04:49:04.880Z,98160.63
2022-09-11T04:51:34.847Z,98163.88
2022-09-11T04:54:03.136Z,98163.75
2022-09-11T04:56:37.913Z,98165.09
2022-09-11T04:59:06.669Z,98165.72
2022-09-11T05:01:35.804Z,98173.06
2022-09-11T05:04:03.208Z,98165.53
2022-09-11T05:06:30.468Z,98168.50
2022-09-11T05:09:05.387Z,98174.16
2022-09-11T05:11:35.021Z,98176.16
2022-09-11T05:14:01.832Z,98181.41
2022-09-11T05:16:31.277Z,98182.75
2022-09-11T05:18:58.879Z,98179.66
2022-09-11T05:21:27.143Z,98185.38
2022-09-11T05:23:55.849Z,98183.53
2022-09-11T05:26:24.749Z,98183.34
2022-09-11T05:28:59.741Z,98189.69
2022-09-11T05:31:27.387Z,98192.72
2022-09-11T05:33:59.097Z,98194.25
2022-09-11T05:36:27.724Z,98194.84
2022-09-11T05:38:54.341Z,98199.34
2022-09-11T05:41:21.265Z,98203.47
2022-09-11T05:43:48.305Z,98204.44
2022-09-11T05:46:16.986Z,98211.53
2022-09-11T05:48:47.226Z,98210.00
2022-09-11T05:51:16.729Z,98200.28
2022-09-11T05:53:44.488Z,98216.91
2022-09-11T05:56:19.701Z,98214.44
2022-09-11T05:58:48.471Z,98216.13
2022-09-11T06:01:18.746Z,98220.16
2022-09-11T06:03:50.782Z,98226.63
2022-09-11T06:06:22.397Z,98227.06
2022-09-11T06:08:50.219Z,98224.59
2022-09-11T06:11:18.780Z,98233.66
2022-09-11T06:13:47.140Z,98237.94
2022-09-11T06:16:18.530Z,98236.88
2022-09-11T06:18:49.425Z,98239.94
2022-09-11T06:21:20.727Z,98250.31
2022-09-11T06:23:54.387Z,98246.66
2022-09-11T06:26:24.093Z,98246.00
2022-09-11T06:28:51.518Z,98245.06
2022-09-11T06:31:20.764Z,98252.09
2022-09-11T06:33:47.729Z,98249.09
2022-09-11T06:36:19.603Z,98244.44
2022-09-11T06:38:47.343Z,98248.50
2022-09-11T06:41:16.986Z,98244.88
2022-09-11T06:43:44.602Z,98240.13
2022-09-11T06:46:17.714Z,98242.94
2022-09-11T06:48:46.170Z,98249.19
2022-09-11T06:51:17.587Z,98250.31
2022-09-11T06:53:45.011Z,98257.19
2022-09-11T06:56:14.537Z,98254.34
2022-09-11T06:58:43.979Z,98263.66
2022-09-11T07:01:16.371Z,98252.78
2022-09-11T07:03:47.183Z,98257.19
2022-09-11T07:06:18.142Z,98261.88
2022-09-11T07:08:54.790Z,98257.47
2022-09-11T07:11:21.635Z,98268.75
2022-09-11T07:13:48.468Z,98270.06
2022-09-11T07:16:16.663Z,98265.72
2022-09-11T07:18:48.263Z,98275.09
2022-09-11T07:21:22.460Z,98274.34
2022-09-11T07:23:54.928Z,98268.66
2022-09-11T07:26:23.342Z,98264.00
2022-09-11T07:28:54.766Z,98262.22
2022-09-11T07:31:29.199Z,98277.84
2022-09-11T07:33:57.010Z,98276.00
2022-09-11T07:36:27.644Z,98272.13
2022-09-11T07:38:55.210Z,98271.75
2022-09-11T07:41:25.034Z,98276.38
2022-09-11T07:43:56.901Z,98274.50
2022-09-11T07:46:26.923Z,98278.81
2022-09-11T07:48:58.658Z,98279.88
2022-09-11T07:51:26.890Z,98282.94
2022-09-11T07:53:56.656Z,98280.13
2022-09-11T07:56:25.696Z,98278.38
2022-09-11T07:58:55.099Z,98276.31
2022-09-11T08:01:24.864Z,98275.59
2022-09-11T08:04:06.661Z,98273.28
2022-09-11T08:06:36.821Z,98267.00
2022-09-11T08:09:09.354Z,98273.75
2022-09-11T08:11:43.035Z,98278.81
2022-09-11T08:14:11.776Z,98284.72
2022-09-11T08:16:38.926Z,98285.56
2022-09-11T08:19:06.938Z,98291.50
2022-09-11T08:21:34.795Z,98288.09
2022-09-11T08:24:03.850Z,98291.16
2022-09-11T08:26:31.282Z,98290.97
2022-09-11T08:29:00.148Z,98297.09
2022-09-11T08:31:30.260Z,98295.63
2022-09-11T08:33:58.934Z,98307.28
2022-09-11T08:36:27.069Z,98308.84
2022-09-11T08:38:53.719Z,98312.91
2022-09-11T08:41:29.156Z,98309.28
2022-09-11T08:44:02.030Z,98314.59
2022-09-11T08:46:37.909Z,98307.91
2022-09-11T08:49:10.432Z,98311.94
2022-09-11T08:51:37.754Z,98318.09
2022-09-11T08:54:05.210Z,98316.50
2022-09-11T08:56:37.942Z,98319.88
2022-09-11T08:59:24.395Z,98316.41
2022-09-11T09:02:03.155Z,98331.09
2022-09-11T09:04:54.821Z,98338.41
2022-09-11T09:07:37.712Z,98343.03
2022-09-11T09:10:15.348Z,98342.19
2022-09-11T09:12:53.275Z,98345.22
2022-09-11T09:15:41.300Z,98346.91
2022-09-11T09:18:19.180Z,98343.00
2022-09-11T09:21:01.102Z,98342.34
2022-09-11T09:23:35.599Z,98342.34
2022-09-11T09:26:02.155Z,98344.25
2022-09-11T09:28:40.698Z,98351.41
2022-09-11T09:31:10.408Z,98351.75
2022-09-11T09:33:48.721Z,98360.88
2022-09-11T09:36:22.452Z,98360.03
2022-09-11T09:38:49.491Z,98357.59
2022-09-11T09:41:41.496Z,98369.44
2022-09-11T09:44:37.420Z,98367.41
2022-09-11T09:47:05.033Z,98366.03
2022-09-11T09:49:34.542Z,98357.53
2022-09-11T09:52:12.180Z,98368.59
2022-09-11T09:54:39.789Z,98368.47
2022-09-11T09:57:10.418Z,98375.41
2022-09-11T09:59:55.246Z,98373.19
2022-09-11T10:02:55.247Z,98373.16
2022-09-11T10:05:28.997Z,98374.13
2022-09-11T10:08:06.718Z,98362.59
2022-09-11T10:10:38.834Z,98373.50
2022-09-11T10:13:19.610Z,98376.09
2022-09-11T10:15:49.434Z,98378.22
2022-09-11T10:18:35.984Z,98381.88
2022-09-11T10:21:11.728Z,98376.91
2022-09-11T10:23:50.702Z,98375.13
2022-09-11T10:26:45.970Z,98378.81
2022-09-11T10:29:24.338Z,98371.47
2022-09-11T10:31:53.437Z,98381.59
2022-09-11T10:34:22.419Z,98387.31
2022-09-11T10:36:56.865Z,98385.56
2022-09-11T10:39:26.373Z,98382.59
2022-09-11T10:41:59.405Z,98379.78
2022-09-11T10:44:27.851Z,98392.56
2022-09-11T10:47:06.482Z,98386.94
2022-09-11T10:49:34.293Z,98390.19
2022-09-11T10:52:06.856Z,98389.09
2022-09-11T10:54:48.184Z,98395.34
2022-09-11T10:57:36.351Z,98396.66
2022-09-11T11:00:27.555Z,98393.16
2022-09-11T11:03:05.349Z,98388.59
2022-09-11T11:05:39.622Z,98393.88
2022-09-11T11:08:50.967Z,98399.47
2022-09-11T11:11:32.488Z,98381.72
2022-09-11T11:14:02.013Z,98370.97
2022-09-11T11:16:40.855Z,98380.00
2022-09-11T11:19:13.657Z,98381.41
2022-09-11T11:22:17.941Z,98383.25
2022-09-11T11:25:06.757Z,98377.38
2022-09-11T11:28:00.699Z,98382.72
2022-09-11T11:30:50.589Z,98378.03
2022-09-11T11:33:37.889Z,98370.69
2022-09-11T11:36:12.187Z,98370.31
2022-09-11T11:38:52.906Z,98379.28
2022-09-11T11:41:23.721Z,98379.41
2022-09-11T11:43:55.599Z,98386.94
2022-09-11T11:46:30.358Z,98389.78
2022-09-11T11:49:04.570Z,98390.16
2022-09-11T11:51:39.417Z,98394.53
2022-09-11T11:54:29.175Z,98405.84
2022-09-11T11:57:24.085Z,98402.31
2022-09-11T11:59:57.332Z,98395.16
2022-09-11T12:02:49.615Z,98398.13
2022-09-11T12:05:20.310Z,98389.78
2022-09-11T12:07:47.421Z,98393.03
2022-09-11T12:10:25.570Z,98395.22
2022-09-11T12:12:59.932Z,98394.13
2022-09-11T12:15:32.275Z,98395.44
2022-09-11T12:18:02.087Z,98393.91
2022-09-11T12:20:39.154Z,98390.81
2022-09-11T12:23:08.562Z,98394.69
2022-09-11T12:25:38.123Z,98395.88
2022-09-11T12:28:22.002Z,98393.22
2022-09-11T12:31:05.289Z,98387.81
2022-09-11T12:33:41.025Z,98384.13
2022-09-11T12:36:09.733Z,98381.44
2022-09-11T12:38:44.943Z,98384.75
2022-09-11T12:41:31.486Z,98386.00
2022-09-11T12:43:58.263Z,98376.06
2022-09-11T12:46:28.093Z,98383.72
2022-09-11T12:49:20.328Z,98381.81
2022-09-11T12:51:52.878Z,98379.91
2022-09-11T12:54:31.514Z,98378.78
2022-09-11T12:57:05.361Z,98382.59
2022-09-11T12:59:39.171Z,98374.19
2022-09-11T13:02:25.999Z,98371.47
2022-09-11T13:04:54.911Z,98371.13
2022-09-11T13:07:39.757Z,98366.25
2022-09-11T13:10:09.162Z,98354.63
2022-09-11T13:12:49.228Z,98358.63
2022-09-11T13:15:39.416Z,98363.19
2022-09-11T13:18:31.098Z,98361.22
2022-09-11T13:21:26.343Z,98360.06
2022-09-11T13:23:53.598Z,98359.69
2022-09-11T13:26:25.547Z,98360.50
2022-09-11T13:28:55.087Z,98350.56
2022-09-11T13:31:33.662Z,98347.44
2022-09-11T13:34:03.601Z,98349.34
2022-09-11T13:36:31.464Z,98350.97
2022-09-11T13:39:01.672Z,98347.44
2022-09-11T13:41:37.525Z,98347.19
2022-09-11T13:44:11.538Z,98340.19
2022-09-11T13:46:50.956Z,98339.41
2022-09-11T13:49:17.429Z,98341.72
2022-09-11T13:51:46.942Z,98339.25
2022-09-11T13:54:38.276Z,98340.13
2022-09-11T13:57:12.630Z,98344.28
2022-09-11T13:59:57.087Z,98346.44
2022-09-11T14:02:38.056Z,98337.28
2022-09-11T14:05:13.854Z,98335.03
2022-09-11T14:08:01.980Z,98340.78
2022-09-11T14:10:30.622Z,98339.22
2022-09-11T14:13:05.098Z,98336.84
2022-09-11T14:15:40.324Z,98334.28
2022-09-11T14:18:13.920Z,98327.56
2022-09-11T14:23:18.315Z,98325.91
2022-09-11T14:26:05.098Z,98324.78
2022-09-11T14:28:36.595Z,98321.38
2022-09-11T14:31:08.267Z,98318.97
2022-09-11T14:33:34.905Z,98319.44
2022-09-11T14:36:07.762Z,98309.97
2022-09-11T14:38:35.258Z,98316.44
2022-09-11T14:41:06.053Z,98323.28
2022-09-11T14:43:34.638Z,98322.53
2022-09-11T14:46:02.909Z,98313.41
2022-09-11T14:48:31.389Z,98319.84
2022-09-11T14:50:58.421Z,98307.66
2022-09-11T14:53:33.803Z,98309.94
2022-09-11T14:56:01.775Z,98310.75
2022-09-11T14:58:29.530Z,98308.81
2022-09-11T15:00:57.301Z,98308.88
2022-09-11T15:03:25.498Z,98311.50
2022-09-11T15:05:56.240Z,98305.44
2022-09-11T15:08:23.870Z,98303.13
2022-09-11T15:10:51.007Z,98303.13
2022-09-11T15:13:17.651Z,98300.63
2022-09-11T15:15:45.853Z,98308.53
2022-09-11T15:18:12.470Z,98296.50
2022-09-11T15:20:39.654Z,98293.91
2022-09-11T15:23:06.517Z,98299.88
2022-09-11T15:25:33.128Z,98293.09
2022-09-11T15:27:59.774Z,98286.16
2022-09-11T15:30:27.796Z,98300.69
2022-09-11T15:32:54.947Z,98289.34
2022-09-11T15:35:23.294Z,98292.09
2022-09-11T15:37:50.757Z,98294.66
2022-09-11T15:40:17.845Z,98293.84
2022-09-11T15:42:44.632Z,98287.72
2022-09-11T15:45:12.948Z,98282.78
2022-09-11T15:47:40.227Z,98282.75
2022-09-11T15:50:07.878Z,98278.72
2022-09-11T15:52:36.395Z,98278.84
2022-09-11T15:55:03.713Z,98286.09
2022-09-11T15:57:31.287Z,98274.28
2022-09-11T15:59:57.996Z,98276.19
2022-09-11T16:02:24.712Z,98279.53
2022-09-11T16:04:53.746Z,98279.72
2022-09-11T16:07:21.239Z,98279.13
2022-09-11T16:09:47.814Z,98279.88
2022-09-11T16:12:15.720Z,98282.47
2022-09-11T16:14:43.671Z,98283.97
2022-09-11T16:17:10.457Z,98281.13
2022-09-11T16:19:38.689Z,98280.72
2022-09-11T16:22:07.030Z,98278.66
2022-09-11T16:24:37.431Z,98269.84
2022-09-11T16:27:07.556Z,98276.56
2022-09-11T16:30:09.117Z,98276.09
2022-09-11T16:32:28.462Z,98271.47
2022-09-11T16:34:57.273Z,98277.06
2022-09-11T16:37:24.130Z,98274.66
2022-09-11T16:39:51.030Z,98276.53
2022-09-11T16:42:21.790Z,98271.88
2022-09-11T16:44:49.722Z,98279.78
2022-09-11T16:47:17.025Z,98274.66
2022-09-11T16:50:06.442Z,98282.53
2022-09-11T16:52:30.215Z,98284.19
2022-09-11T16:54:56.869Z,98283.41
2022-09-11T16:57:23.566Z,98277.50
2022-09-11T16:59:51.003Z,98277.06
2022-09-11T17:02:17.651Z,98276.59
2022-09-11T17:04:44.224Z,98275.91
2022-09-11T17:07:10.818Z,98276.19
2022-09-11T17:09:37.474Z,98280.66
2022-09-11T17:12:04.189Z,98272.38
2022-09-11T17:14:30.812Z,98274.81
2022-09-11T17:16:57.422Z,98265.13
2022-09-11T17:19:24.052Z,98270.94
2022-09-11T17:21:50.905Z,98268.38
2022-09-11T17:24:21.590Z,98265.94
2022-09-11T17:26:50.649Z,98271.78
2022-09-11T17:29:19.547Z,98269.84
2022-09-11T17:31:46.422Z,98268.16
2022-09-11T17:34:14.199Z,98273.63
2022-09-11T17:36:40.937Z,98264.31
2022-09-11T17:39:07.637Z,98262.19
2022-09-11T17:41:34.143Z,98260.69
2022-09-11T17:44:00.717Z,98262.31
2022-09-11T17:46:28.248Z,98268.19
2022-09-11T17:48:55.865Z,98265.75
2022-09-11T17:51:26.165Z,98266.00
2022-09-11T17:53:56.308Z,98268.78
2022-09-11T17:56:25.915Z,98274.28
2022-09-11T17:58:57.437Z,98272.91
2022-09-11T18:01:25.807Z,98278.75
2022-09-11T18:03:54.775Z,98272.31
2022-09-11T18:06:30.368Z,98275.59
2022-09-11T18:09:02.056Z,98267.72
2022-09-11T18:11:30.373Z,98270.34
2022-09-11T18:13:58.398Z,98277.72
2022-09-11T18:16:25.202Z,98273.25
2022-09-11T18:18:51.893Z,98270.31
2022-09-11T18:21:18.431Z,98263.28
2022-09-11T18:23:46.316Z,98264.50
2022-09-11T18:26:25.813Z,98270.44
2022-09-11T18:28:57.656Z,98262.09
2022-09-11T18:31:24.433Z,98272.41
2022-09-11T18:33:55.606Z,98269.91
2022-09-11T18:36:23.558Z,98273.41
2022-09-11T18:38:55.433Z,98269.81
2022-09-11T18:41:23.433Z,98274.81
2022-09-11T18:43:54.487Z,98270.53
2022-09-11T18:46:21.849Z,98279.22
2022-09-11T18:48:50.369Z,98284.00
2022-09-11T18:51:17.883Z,98278.31
2022-09-11T18:53:47.650Z,98289.25
2022-09-11T18:56:14.323Z,98283.47
2022-09-11T18:58:40.860Z,98285.38
2022-09-11T19:01:10.559Z,98281.63
2022-09-11T19:03:41.916Z,98287.56
2022-09-11T19:06:11.769Z,98288.75
2022-09-11T19:08:40.440Z,98283.72
2022-09-11T19:11:13.361Z,98291.41
2022-09-11T19:13:40.059Z,98293.00
2022-09-11T19:16:07.196Z,98290.63
2022-09-11T19:18:35.492Z,98288.13
2022-09-11T19:21:10.234Z,98285.09
2022-09-11T19:23:39.774Z,98280.84
2022-09-11T19:26:13.027Z,98285.25
2022-09-11T19:28:41.309Z,98289.03
2022-09-11T19:31:10.037Z,98282.56
2022-09-11T19:33:37.987Z,98283.53
2022-09-11T19:36:10.767Z,98291.28
2022-09-11T19:38:41.112Z,98292.16
2022-09-11T19:41:09.572Z,98280.09
2022-09-11T19:43:37.702Z,98287.50
2022-09-11T19:46:05.378Z,98296.31
2022-09-11T19:48:33.389Z,98289.75
2022-09-11T19:51:03.194Z,98298.38
2022-09-11T19:53:30.416Z,98293.47
2022-09-11T19:55:58.005Z,98294.16
2022-09-11T19:58:25.477Z,98296.97
2022-09-11T20:00:52.331Z,98296.53
2022-09-11T20:03:19.081Z,98291.97
2022-09-11T20:05:46.091Z,98287.22
2022-09-11T20:08:16.099Z,98285.00
2022-09-11T20:10:45.438Z,98285.59
2022-09-11T20:13:12.371Z,98291.31
2022-09-11T20:15:40.170Z,98293.91
2022-09-11T20:18:07.853Z,98290.50
2022-09-11T20:20:36.050Z,98288.22
2022-09-11T20:23:03.024Z,98288.22
2022-09-11T20:25:29.687Z,98288.41
2022-09-11T20:27:56.386Z,98280.06
2022-09-11T20:30:25.096Z,98276.84
2022-09-11T20:32:52.184Z,98280.75
2022-09-11T20:35:18.944Z,98280.81
2022-09-11T20:37:45.464Z,98273.75
2022-09-11T20:40:12.748Z,98268.78
2022-09-11T20:42:39.841Z,98266.47
2022-09-11T20:45:06.828Z,98268.31
2022-09-11T20:47:33.366Z,98263.84
2022-09-11T20:50:00.643Z,98261.22
2022-09-11T20:52:27.515Z,98267.88
2022-09-11T20:54:54.467Z,98262.97
2022-09-11T20:57:20.988Z,98267.56
2022-09-11T20:59:47.980Z,98261.88
2022-09-11T21:02:14.838Z,98263.75
2022-09-11T21:04:41.609Z,98266.88
2022-09-11T21:07:08.133Z,98267.22
2022-09-11T21:09:35.480Z,98262.59
2022-09-11T21:12:02.262Z,98263.19
2022-09-11T21:14:28.850Z,98253.38
2022-09-11T21:16:55.370Z,98252.91
2022-09-11T21:19:21.876Z,98256.47
2022-09-11T21:21:48.423Z,98260.47
2022-09-11T21:24:14.983Z,98253.34
2022-09-11T21:26:42.474Z,98247.84
2022-09-11T21:29:12.285Z,98250.13
2022-09-11T21:31:38.934Z,98243.19
2022-09-11T21:34:05.692Z,98240.88
2022-09-11T21:36:33.580Z,98243.50
2022-09-11T21:39:00.188Z,98239.72
2022-09-11T21:41:26.720Z,98242.69
2022-09-11T21:43:53.239Z,98236.38
2022-09-11T21:46:20.345Z,98237.91
2022-09-11T21:48:46.977Z,98229.13
2022-09-11T21:51:16.470Z,98233.00
2022-09-11T21:53:45.692Z,98229.00
2022-09-11T21:56:20.730Z,98220.50
2022-09-11T21:58:48.732Z,98222.53
2022-09-11T22:01:15.433Z,98221.47
2022-09-11T22:03:42.067Z,98218.38
2022-09-11T22:06:10.327Z,98220.22
2022-09-11T22:08:38.422Z,98221.47
2022-09-11T22:11:05.708Z,98222.84
2022-09-11T22:13:32.991Z,98222.53
2022-09-11T22:16:00.451Z,98214.38
2022-09-11T22:18:31.596Z,98211.78
2022-09-11T22:21:01.236Z,98218.34
2022-09-11T22:23:29.533Z,98214.34
2022-09-11T22:26:01.090Z,98220.50
2022-09-11T22:28:28.317Z,98220.19
2022-09-11T22:30:55.046Z,98221.22
2022-09-11T22:33:22.112Z,98216.47
2022-09-11T22:35:49.562Z,98220.97
2022-09-11T22:38:16.332Z,98223.28
2022-09-11T22:40:42.921Z,98223.44
2022-09-11T22:43:09.704Z,98226.97
2022-09-11T22:45:36.310Z,98218.66
2022-09-11T22:48:03.018Z,98215.75
2022-09-11T22:50:29.703Z,98209.28
2022-09-11T22:52:56.229Z,98203.44
2022-09-11T22:55:22.740Z,98211.16
2022-09-11T22:57:49.649Z,98206.19
2022-09-11T23:00:18.201Z,98216.34
2022-09-11T23:02:44.716Z,98209.88
2022-09-11T23:05:29.857Z,98204.06
2022-09-11T23:07:56.431Z,98205.16
2022-09-11T23:10:23.845Z,98200.69
2022-09-11T23:12:52.116Z,98202.66
2022-09-11T23:15:19.542Z,98201.75
2022-09-11T23:17:46.134Z,98197.91
2022-09-11T23:20:12.906Z,98203.44
2022-09-11T23:22:39.484Z,98206.38
2022-09-11T23:25:06.814Z,98206.34
2022-09-11T23:27:33.382Z,98204.78
2022-09-11T23:30:00.020Z,98202.63
2022-09-11T23:32:26.666Z,98202.44
2022-09-11T23:34:53.254Z,98204.13
2022-09-11T23:37:19.814Z,98199.06
2022-09-11T23:39:46.866Z,98201.19
2022-09-11T23:42:13.463Z,98200.59
2022-09-11T23:44:40.056Z,98196.63
2022-09-11T23:47:06.619Z,98198.97
2022-09-11T23:49:36.363Z,98197.56
2022-09-11T23:52:04.430Z,98193.56
2022-09-11T23:54:30.965Z,98204.91
2022-09-11T23:56:57.617Z,98205.22
2022-09-11T23:59:24.120Z,98198.66
